Terminal Aerodrome Forecast
Issued by NWS Spokane, WA

Home | Current Version | Previous Version | Text Only | Print | Product List | Glossary On
Versions: 1 2 3 4 5 6 7 8 9 10 11 12 13
000
FTUS46 KOTX 301122
TAFEAT
TAF
KEAT 301122Z 3012/3112 34010KT P6SM FEW250
     FM302100 11005KT P6SM FEW080 SCT250
     FM310600 35004KT P6SM SCT250=

USA.gov is the U.S. government's official web portal to all federal, state and local government web resources and services.